sensor_id;sensor_type;location;lat;lon;timestamp;pressure;altitude;pressure_sealevel;temperature;humidity
74529;BME280;63009;52.584;5.932;2023-06-14T00:01:00;101601.50;;;16.97;57.68
74529;BME280;63009;52.584;5.932;2023-06-14T00:03:28;101615.28;;;17.04;57.34
74529;BME280;63009;52.584;5.932;2023-06-14T00:05:54;101624.13;;;17.04;57.33
74529;BME280;63009;52.584;5.932;2023-06-14T00:08:19;101614.31;;;17.05;57.41
74529;BME280;63009;52.584;5.932;2023-06-14T00:10:46;101617.41;;;16.99;57.64
74529;BME280;63009;52.584;5.932;2023-06-14T00:13:11;101629.28;;;16.95;57.71
74529;BME280;63009;52.584;5.932;2023-06-14T00:15:37;101620.31;;;16.96;57.95
74529;BME280;63009;52.584;5.932;2023-06-14T00:18:03;101612.69;;;16.78;58.54
74529;BME280;63009;52.584;5.932;2023-06-14T00:20:31;101616.44;;;16.76;58.37
74529;BME280;63009;52.584;5.932;2023-06-14T00:22:58;101615.25;;;16.67;58.50
74529;BME280;63009;52.584;5.932;2023-06-14T00:25:23;101604.78;;;16.51;58.60
74529;BME280;63009;52.584;5.932;2023-06-14T00:27:52;101605.09;;;16.47;59.16
74529;BME280;63009;52.584;5.932;2023-06-14T00:30:18;101617.59;;;16.46;59.33
74529;BME280;63009;52.584;5.932;2023-06-14T00:32:44;101589.13;;;16.21;59.53
74529;BME280;63009;52.584;5.932;2023-06-14T00:35:10;101618.25;;;16.37;59.11
74529;BME280;63009;52.584;5.932;2023-06-14T00:37:35;101624.66;;;16.35;59.31
74529;BME280;63009;52.584;5.932;2023-06-14T00:40:01;101625.06;;;16.28;59.51
74529;BME280;63009;52.584;5.932;2023-06-14T00:42:27;101624.00;;;16.18;59.75
74529;BME280;63009;52.584;5.932;2023-06-14T00:44:53;101624.00;;;16.18;60.15
74529;BME280;63009;52.584;5.932;2023-06-14T00:47:19;101610.97;;;16.01;61.23
74529;BME280;63009;52.584;5.932;2023-06-14T00:49:49;101613.44;;;15.91;61.49
74529;BME280;63009;52.584;5.932;2023-06-14T00:52:16;101620.78;;;15.88;61.48
74529;BME280;63009;52.584;5.932;2023-06-14T00:54:44;101618.75;;;15.79;61.86
74529;BME280;63009;52.584;5.932;2023-06-14T00:57:10;101627.56;;;15.66;62.52
74529;BME280;63009;52.584;5.932;2023-06-14T00:59:43;101624.34;;;15.61;62.31
74529;BME280;63009;52.584;5.932;2023-06-14T01:02:09;101628.16;;;15.57;62.71
74529;BME280;63009;52.584;5.932;2023-06-14T01:04:34;101631.03;;;15.54;62.62
74529;BME280;63009;52.584;5.932;2023-06-14T01:10:03;101632.84;;;15.54;64.16
74529;BME280;63009;52.584;5.932;2023-06-14T01:12:53;101631.41;;;15.35;64.29
74529;BME280;63009;52.584;5.932;2023-06-14T01:15:21;101626.34;;;15.31;64.06
74529;BME280;63009;52.584;5.932;2023-06-14T01:17:49;101635.81;;;15.22;64.88
74529;BME280;63009;52.584;5.932;2023-06-14T01:20:17;101623.00;;;15.14;66.01
74529;BME280;63009;52.584;5.932;2023-06-14T01:22:51;101634.06;;;15.08;66.36
74529;BME280;63009;52.584;5.932;2023-06-14T01:25:18;101642.88;;;15.09;66.48
74529;BME280;63009;52.584;5.932;2023-06-14T01:27:46;101637.75;;;15.06;65.93
74529;BME280;63009;52.584;5.932;2023-06-14T01:30:12;101641.66;;;15.00;66.91
74529;BME280;63009;52.584;5.932;2023-06-14T01:32:37;101637.78;;;14.92;66.79
74529;BME280;63009;52.584;5.932;2023-06-14T01:35:03;101638.72;;;14.91;67.53
74529;BME280;63009;52.584;5.932;2023-06-14T01:37:29;101644.16;;;14.89;67.94
74529;BME280;63009;52.584;5.932;2023-06-14T01:39:55;101628.88;;;14.78;67.60
74529;BME280;63009;52.584;5.932;2023-06-14T01:42:21;101630.09;;;14.73;68.35
74529;BME280;63009;52.584;5.932;2023-06-14T01:44:48;101639.91;;;14.72;69.27
74529;BME280;63009;52.584;5.932;2023-06-14T01:47:14;101646.19;;;14.71;69.98
74529;BME280;63009;52.584;5.932;2023-06-14T01:49:39;101642.56;;;14.58;70.18
74529;BME280;63009;52.584;5.932;2023-06-14T01:52:05;101645.31;;;14.57;70.21
74529;BME280;63009;52.584;5.932;2023-06-14T01:54:31;101630.78;;;14.48;69.71
74529;BME280;63009;52.584;5.932;2023-06-14T01:56:56;101639.97;;;14.42;68.97
74529;BME280;63009;52.584;5.932;2023-06-14T01:59:22;101645.59;;;14.38;69.49
74529;BME280;63009;52.584;5.932;2023-06-14T02:01:47;101645.09;;;14.31;70.19
74529;BME280;63009;52.584;5.932;2023-06-14T02:04:12;101647.00;;;14.29;70.27
74529;BME280;63009;52.584;5.932;2023-06-14T02:06:38;101641.00;;;14.25;70.49
74529;BME280;63009;52.584;5.932;2023-06-14T02:09:03;101646.34;;;14.25;70.83
74529;BME280;63009;52.584;5.932;2023-06-14T02:11:29;101643.78;;;14.24;70.71
74529;BME280;63009;52.584;5.932;2023-06-14T02:13:54;101624.28;;;14.09;70.71
74529;BME280;63009;52.584;5.932;2023-06-14T02:16:20;101635.38;;;14.16;71.00
74529;BME280;63009;52.584;5.932;2023-06-14T02:18:45;101643.38;;;14.16;71.22
74529;BME280;63009;52.584;5.932;2023-06-14T02:21:11;101639.19;;;14.12;71.37
74529;BME280;63009;52.584;5.932;2023-06-14T02:23:36;101638.53;;;14.08;71.34
74529;BME280;63009;52.584;5.932;2023-06-14T02:26:01;101638.25;;;14.13;72.25
74529;BME280;63009;52.584;5.932;2023-06-14T02:28:27;101638.59;;;14.07;72.19
74529;BME280;63009;52.584;5.932;2023-06-14T02:30:53;101628.03;;;13.91;72.71
74529;BME280;63009;52.584;5.932;2023-06-14T02:33:18;101637.72;;;13.92;72.88
74529;BME280;63009;52.584;5.932;2023-06-14T02:35:43;101647.69;;;13.88;73.41
74529;BME280;63009;52.584;5.932;2023-06-14T02:38:09;101650.94;;;13.93;72.51
74529;BME280;63009;52.584;5.932;2023-06-14T02:40:34;101643.22;;;13.89;72.44
74529;BME280;63009;52.584;5.932;2023-06-14T02:42:59;101650.00;;;13.94;73.04
74529;BME280;63009;52.584;5.932;2023-06-14T02:45:25;101649.13;;;13.94;72.17
74529;BME280;63009;52.584;5.932;2023-06-14T02:47:50;101637.34;;;13.84;71.95
74529;BME280;63009;52.584;5.932;2023-06-14T02:50:16;101641.41;;;13.89;71.84
74529;BME280;63009;52.584;5.932;2023-06-14T02:52:42;101653.00;;;13.88;72.14
74529;BME280;63009;52.584;5.932;2023-06-14T02:55:07;101644.16;;;13.88;72.39
74529;BME280;63009;52.584;5.932;2023-06-14T02:57:33;101658.97;;;13.92;72.38
74529;BME280;63009;52.584;5.932;2023-06-14T02:59:58;101649.56;;;13.86;71.75
74529;BME280;63009;52.584;5.932;2023-06-14T03:02:23;101652.72;;;13.93;72.41
74529;BME280;63009;52.584;5.932;2023-06-14T03:04:49;101647.97;;;13.84;72.58
74529;BME280;63009;52.584;5.932;2023-06-14T03:07:14;101646.72;;;13.89;72.95
74529;BME280;63009;52.584;5.932;2023-06-14T03:09:44;101655.84;;;13.85;73.90
74529;BME280;63009;52.584;5.932;2023-06-14T03:12:10;101658.69;;;13.82;73.90
74529;BME280;63009;52.584;5.932;2023-06-14T03:14:36;101655.25;;;13.80;74.21
74529;BME280;63009;52.584;5.932;2023-06-14T03:17:05;101661.69;;;13.76;74.54
74529;BME280;63009;52.584;5.932;2023-06-14T03:19:30;101664.53;;;13.73;74.84
74529;BME280;63009;52.584;5.932;2023-06-14T03:21:56;101669.25;;;13.68;75.39
74529;BME280;63009;52.584;5.932;2023-06-14T03:24:24;101670.97;;;13.69;75.07
74529;BME280;63009;52.584;5.932;2023-06-14T03:26:52;101676.38;;;13.68;74.78
74529;BME280;63009;52.584;5.932;2023-06-14T03:29:17;101679.13;;;13.66;75.45
74529;BME280;63009;52.584;5.932;2023-06-14T03:32:00;101682.53;;;13.68;74.88
74529;BME280;63009;52.584;5.932;2023-06-14T03:34:25;101685.97;;;13.70;74.58
74529;BME280;63009;52.584;5.932;2023-06-14T03:36:51;101685.19;;;13.68;74.99
74529;BME280;63009;52.584;5.932;2023-06-14T03:39:16;101672.53;;;13.57;75.08
74529;BME280;63009;52.584;5.932;2023-06-14T03:41:42;101678.34;;;13.64;75.18
74529;BME280;63009;52.584;5.932;2023-06-14T03:44:07;101682.63;;;13.66;75.26
74529;BME280;63009;52.584;5.932;2023-06-14T03:46:32;101673.28;;;13.59;75.38
74529;BME280;63009;52.584;5.932;2023-06-14T03:48:58;101671.78;;;13.55;75.19
74529;BME280;63009;52.584;5.932;2023-06-14T03:51:23;101696.94;;;13.64;76.07
74529;BME280;63009;52.584;5.932;2023-06-14T03:53:50;101696.25;;;13.60;76.46
74529;BME280;63009;52.584;5.932;2023-06-14T03:56:15;101691.03;;;13.59;75.88
74529;BME280;63009;52.584;5.932;2023-06-14T03:58:40;101696.88;;;13.65;75.76
74529;BME280;63009;52.584;5.932;2023-06-14T04:01:06;101694.13;;;13.67;75.62
74529;BME280;63009;52.584;5.932;2023-06-14T04:03:32;101699.25;;;13.70;75.81
74529;BME280;63009;52.584;5.932;2023-06-14T04:05:58;101693.41;;;13.63;76.07
74529;BME280;63009;52.584;5.932;2023-06-14T04:08:25;101702.38;;;13.77;76.12
74529;BME280;63009;52.584;5.932;2023-06-14T04:10:50;101707.47;;;13.81;76.32
74529;BME280;63009;52.584;5.932;2023-06-14T04:13:15;101696.41;;;13.73;76.03
74529;BME280;63009;52.584;5.932;2023-06-14T04:15:41;101709.94;;;13.84;76.47
74529;BME280;63009;52.584;5.932;2023-06-14T04:18:07;101719.44;;;13.88;76.65
74529;BME280;63009;52.584;5.932;2023-06-14T04:20:33;101704.53;;;13.86;76.72
74529;BME280;63009;52.584;5.932;2023-06-14T04:23:11;101721.75;;;13.94;76.05
74529;BME280;63009;52.584;5.932;2023-06-14T04:25:37;101707.00;;;13.89;76.51
74529;BME280;63009;52.584;5.932;2023-06-14T04:28:02;101730.09;;;14.03;76.25
74529;BME280;63009;52.584;5.932;2023-06-14T04:30:28;101726.41;;;14.05;76.37
74529;BME280;63009;52.584;5.932;2023-06-14T04:32:56;101725.41;;;14.08;76.47
74529;BME280;63009;52.584;5.932;2023-06-14T04:35:22;101702.69;;;14.02;76.66
74529;BME280;63009;52.584;5.932;2023-06-14T04:37:49;101732.47;;;14.23;76.02
74529;BME280;63009;52.584;5.932;2023-06-14T04:40:14;101729.63;;;14.26;76.92
74529;BME280;63009;52.584;5.932;2023-06-14T04:42:40;101735.31;;;14.34;75.54
74529;BME280;63009;52.584;5.932;2023-06-14T04:45:06;101735.16;;;14.37;75.47
74529;BME280;63009;52.584;5.932;2023-06-14T04:47:32;101735.66;;;14.44;75.31
74529;BME280;63009;52.584;5.932;2023-06-14T04:49:59;101745.84;;;14.51;75.12
74529;BME280;63009;52.584;5.932;2023-06-14T04:52:25;101737.41;;;14.59;74.26
74529;BME280;63009;52.584;5.932;2023-06-14T04:54:52;101748.44;;;14.67;74.38
74529;BME280;63009;52.584;5.932;2023-06-14T04:57:19;101749.00;;;14.72;74.24
74529;BME280;63009;52.584;5.932;2023-06-14T04:59:48;101753.88;;;14.80;73.98
74529;BME280;63009;52.584;5.932;2023-06-14T05:02:13;101753.97;;;14.93;73.36
74529;BME280;63009;52.584;5.932;2023-06-14T05:04:39;101760.41;;;15.03;73.85
74529;BME280;63009;52.584;5.932;2023-06-14T05:07:07;101758.03;;;15.12;73.55
74529;BME280;63009;52.584;5.932;2023-06-14T05:09:33;101757.06;;;15.28;73.06
74529;BME280;63009;52.584;5.932;2023-06-14T05:11:58;101762.88;;;15.34;72.89
74529;BME280;63009;52.584;5.932;2023-06-14T05:14:25;101762.38;;;15.42;72.45
74529;BME280;63009;52.584;5.932;2023-06-14T05:16:50;101765.41;;;15.50;72.21
74529;BME280;63009;52.584;5.932;2023-06-14T05:19:16;101765.97;;;15.55;71.99
74529;BME280;63009;52.584;5.932;2023-06-14T05:21:43;101772.34;;;15.67;71.90
74529;BME280;63009;52.584;5.932;2023-06-14T05:24:09;101775.63;;;15.85;71.20
74529;BME280;63009;52.584;5.932;2023-06-14T05:26:34;101774.09;;;16.08;70.74
74529;BME280;63009;52.584;5.932;2023-06-14T05:29:00;101774.31;;;16.17;69.87
74529;BME280;63009;52.584;5.932;2023-06-14T05:31:27;101771.06;;;16.39;70.07
74529;BME280;63009;52.584;5.932;2023-06-14T05:33:53;101771.72;;;16.43;69.14
74529;BME280;63009;52.584;5.932;2023-06-14T05:36:19;101751.66;;;16.37;68.73
74529;BME280;63009;52.584;5.932;2023-06-14T05:38:46;101768.09;;;16.56;67.47
74529;BME280;63009;52.584;5.932;2023-06-14T05:41:11;101758.53;;;16.79;67.35
74529;BME280;63009;52.584;5.932;2023-06-14T05:43:37;101764.50;;;17.21;66.41
74529;BME280;63009;52.584;5.932;2023-06-14T05:46:02;101765.19;;;17.48;65.80
74529;BME280;63009;52.584;5.932;2023-06-14T05:48:28;101773.25;;;17.96;63.91
74529;BME280;63009;52.584;5.932;2023-06-14T05:50:54;101771.97;;;18.13;62.65
74529;BME280;63009;52.584;5.932;2023-06-14T05:53:19;101782.91;;;18.34;61.77
74529;BME280;63009;52.584;5.932;2023-06-14T05:55:44;101773.56;;;18.16;61.51
74529;BME280;63009;52.584;5.932;2023-06-14T05:58:10;101795.66;;;18.42;61.58
74529;BME280;63009;52.584;5.932;2023-06-14T06:00:35;101796.69;;;18.52;60.44
74529;BME280;63009;52.584;5.932;2023-06-14T06:03:01;101795.94;;;18.74;60.47
74529;BME280;63009;52.584;5.932;2023-06-14T06:05:26;101782.06;;;18.91;59.68
74529;BME280;63009;52.584;5.932;2023-06-14T06:07:51;101778.31;;;19.16;59.64
74529;BME280;63009;52.584;5.932;2023-06-14T06:10:17;101789.84;;;19.39;57.92
74529;BME280;63009;52.584;5.932;2023-06-14T06:12:42;101787.28;;;19.48;58.03
74529;BME280;63009;52.584;5.932;2023-06-14T06:15:08;101800.59;;;19.61;56.73
74529;BME280;63009;52.584;5.932;2023-06-14T06:17:37;101800.31;;;19.75;57.34
74529;BME280;63009;52.584;5.932;2023-06-14T06:20:02;101793.81;;;19.89;56.46
74529;BME280;63009;52.584;5.932;2023-06-14T06:22:28;101798.06;;;20.03;55.41
74529;BME280;63009;52.584;5.932;2023-06-14T06:24:53;101793.13;;;20.08;55.51
74529;BME280;63009;52.584;5.932;2023-06-14T06:27:18;101794.09;;;20.39;56.05
74529;BME280;63009;52.584;5.932;2023-06-14T06:29:44;101796.91;;;20.37;54.92
74529;BME280;63009;52.584;5.932;2023-06-14T06:32:09;101800.97;;;20.85;54.27
74529;BME280;63009;52.584;5.932;2023-06-14T06:34:35;101805.88;;;20.59;52.78
74529;BME280;63009;52.584;5.932;2023-06-14T06:37:00;101809.03;;;20.85;52.63
74529;BME280;63009;52.584;5.932;2023-06-14T06:39:26;101813.06;;;20.79;52.69
74529;BME280;63009;52.584;5.932;2023-06-14T06:41:51;101811.72;;;20.85;53.00
74529;BME280;63009;52.584;5.932;2023-06-14T06:44:16;101805.84;;;21.00;52.22
74529;BME280;63009;52.584;5.932;2023-06-14T06:46:43;101809.59;;;21.49;50.74
74529;BME280;63009;52.584;5.932;2023-06-14T06:49:09;101819.78;;;21.86;48.34
74529;BME280;63009;52.584;5.932;2023-06-14T06:51:35;101823.91;;;21.40;48.14
74529;BME280;63009;52.584;5.932;2023-06-14T06:54:01;101826.78;;;21.68;48.96
74529;BME280;63009;52.584;5.932;2023-06-14T06:56:27;101819.00;;;21.64;47.89
74529;BME280;63009;52.584;5.932;2023-06-14T06:58:52;101821.53;;;21.56;48.30
74529;BME280;63009;52.584;5.932;2023-06-14T07:01:18;101828.31;;;21.51;48.69
74529;BME280;63009;52.584;5.932;2023-06-14T07:03:45;101828.81;;;21.75;48.19
74529;BME280;63009;52.584;5.932;2023-06-14T07:06:10;101815.22;;;21.77;47.30
74529;BME280;63009;52.584;5.932;2023-06-14T07:08:36;101833.81;;;21.99;47.13
74529;BME280;63009;52.584;5.932;2023-06-14T07:11:04;101836.78;;;21.96;46.72
74529;BME280;63009;52.584;5.932;2023-06-14T07:13:30;101834.84;;;22.17;46.21
74529;BME280;63009;52.584;5.932;2023-06-14T07:15:58;101837.13;;;22.51;46.03
74529;BME280;63009;52.584;5.932;2023-06-14T07:18:23;101839.94;;;22.88;46.48
74529;BME280;63009;52.584;5.932;2023-06-14T07:20:49;101839.94;;;22.69;44.82
74529;BME280;63009;52.584;5.932;2023-06-14T07:23:15;101848.03;;;22.30;45.43
74529;BME280;63009;52.584;5.932;2023-06-14T07:25:40;101835.25;;;22.51;46.29
74529;BME280;63009;52.584;5.932;2023-06-14T07:28:05;101840.81;;;22.60;45.53
74529;BME280;63009;52.584;5.932;2023-06-14T07:30:31;101854.56;;;22.66;45.23
74529;BME280;63009;52.584;5.932;2023-06-14T07:32:56;101859.06;;;23.04;46.25
74529;BME280;63009;52.584;5.932;2023-06-14T07:35:22;101858.38;;;22.93;43.72
74529;BME280;63009;52.584;5.932;2023-06-14T07:37:47;101857.38;;;22.94;44.07
74529;BME280;63009;52.584;5.932;2023-06-14T07:40:13;101859.38;;;22.92;45.08
74529;BME280;63009;52.584;5.932;2023-06-14T07:42:39;101861.34;;;23.09;43.52
74529;BME280;63009;52.584;5.932;2023-06-14T07:45:05;101861.34;;;23.09;44.02
74529;BME280;63009;52.584;5.932;2023-06-14T07:47:31;101859.94;;;22.95;42.36
74529;BME280;63009;52.584;5.932;2023-06-14T07:49:56;101869.59;;;23.35;42.95
74529;BME280;63009;52.584;5.932;2023-06-14T07:52:21;101864.28;;;23.53;42.41
74529;BME280;63009;52.584;5.932;2023-06-14T07:54:47;101870.59;;;23.34;42.04
74529;BME280;63009;52.584;5.932;2023-06-14T07:57:12;101864.19;;;22.88;43.01
74529;BME280;63009;52.584;5.932;2023-06-14T07:59:37;101871.84;;;22.93;42.67
74529;BME280;63009;52.584;5.932;2023-06-14T08:02:03;101873.09;;;23.08;42.31
74529;BME280;63009;52.584;5.932;2023-06-14T08:04:29;101859.19;;;23.03;43.69
74529;BME280;63009;52.584;5.932;2023-06-14T08:06:54;101865.63;;;23.39;42.34
74529;BME280;63009;52.584;5.932;2023-06-14T08:09:19;101879.41;;;23.73;41.60
74529;BME280;63009;52.584;5.932;2023-06-14T08:11:45;101867.28;;;24.05;40.73
74529;BME280;63009;52.584;5.932;2023-06-14T08:14:10;101867.09;;;23.88;39.45
74529;BME280;63009;52.584;5.932;2023-06-14T08:16:36;101868.56;;;23.46;40.67
74529;BME280;63009;52.584;5.932;2023-06-14T08:19:01;101864.78;;;23.38;41.53
74529;BME280;63009;52.584;5.932;2023-06-14T08:21:26;101864.41;;;23.61;41.04
74529;BME280;63009;52.584;5.932;2023-06-14T08:23:54;101866.09;;;23.89;40.38
74529;BME280;63009;52.584;5.932;2023-06-14T08:26:20;101865.69;;;23.66;40.09
74529;BME280;63009;52.584;5.932;2023-06-14T08:28:45;101864.00;;;23.56;40.33
74529;BME280;63009;52.584;5.932;2023-06-14T08:31:11;101851.09;;;23.77;41.25
74529;BME280;63009;52.584;5.932;2023-06-14T08:33:36;101853.41;;;23.99;39.99
74529;BME280;63009;52.584;5.932;2023-06-14T08:36:02;101866.25;;;23.88;40.61
74529;BME280;63009;52.584;5.932;2023-06-14T08:38:27;101839.88;;;23.82;40.02
74529;BME280;63009;52.584;5.932;2023-06-14T08:40:52;101841.81;;;23.62;40.20
74529;BME280;63009;52.584;5.932;2023-06-14T08:43:22;101867.28;;;24.05;39.65
74529;BME280;63009;52.584;5.932;2023-06-14T08:45:48;101862.09;;;24.56;40.40
74529;BME280;63009;52.584;5.932;2023-06-14T08:48:14;101866.97;;;24.35;38.04
74529;BME280;63009;52.584;5.932;2023-06-14T08:50:43;101857.06;;;24.44;39.79
74529;BME280;63009;52.584;5.932;2023-06-14T08:53:11;101848.75;;;24.37;38.23
74529;BME280;63009;52.584;5.932;2023-06-14T08:55:41;101867.44;;;24.21;39.07
74529;BME280;63009;52.584;5.932;2023-06-14T08:58:08;101859.06;;;24.24;37.90
74529;BME280;63009;52.584;5.932;2023-06-14T09:00:34;101863.47;;;24.25;38.92
74529;BME280;63009;52.584;5.932;2023-06-14T09:03:02;101864.63;;;24.58;39.58
74529;BME280;63009;52.584;5.932;2023-06-14T09:05:28;101855.75;;;24.30;37.77
74529;BME280;63009;52.584;5.932;2023-06-14T09:07:54;101867.81;;;24.53;38.04
74529;BME280;63009;52.584;5.932;2023-06-14T09:10:27;101865.41;;;24.68;39.92
74529;BME280;63009;52.584;5.932;2023-06-14T09:12:52;101871.56;;;24.78;35.78
74529;BME280;63009;52.584;5.932;2023-06-14T09:15:18;101881.94;;;24.91;36.71
74529;BME280;63009;52.584;5.932;2023-06-14T09:17:43;101880.66;;;24.95;37.33
74529;BME280;63009;52.584;5.932;2023-06-14T09:20:09;101874.00;;;24.90;35.38
74529;BME280;63009;52.584;5.932;2023-06-14T09:22:35;101878.09;;;24.50;35.53
74529;BME280;63009;52.584;5.932;2023-06-14T09:25:01;101874.38;;;24.51;35.81
74529;BME280;63009;52.584;5.932;2023-06-14T09:27:27;101878.53;;;24.81;36.33
74529;BME280;63009;52.584;5.932;2023-06-14T09:29:53;101874.97;;;24.63;36.13
74529;BME280;63009;52.584;5.932;2023-06-14T09:32:18;101882.88;;;24.56;35.74
74529;BME280;63009;52.584;5.932;2023-06-14T09:34:45;101878.75;;;24.70;37.03
74529;BME280;63009;52.584;5.932;2023-06-14T09:37:10;101876.47;;;24.57;36.84
74529;BME280;63009;52.584;5.932;2023-06-14T09:39:35;101871.81;;;24.67;37.19
74529;BME280;63009;52.584;5.932;2023-06-14T09:42:01;101875.28;;;24.60;37.00
74529;BME280;63009;52.584;5.932;2023-06-14T09:44:42;101876.53;;;24.65;36.00
74529;BME280;63009;52.584;5.932;2023-06-14T09:47:08;101861.59;;;24.79;36.31
74529;BME280;63009;52.584;5.932;2023-06-14T09:49:33;101857.69;;;24.99;35.96
74529;BME280;63009;52.584;5.932;2023-06-14T09:51:59;101873.84;;;25.09;35.91
74529;BME280;63009;52.584;5.932;2023-06-14T09:54:26;101862.63;;;25.04;35.70
74529;BME280;63009;52.584;5.932;2023-06-14T09:56:52;101875.16;;;25.31;35.69
74529;BME280;63009;52.584;5.932;2023-06-14T09:59:26;101862.88;;;25.10;34.82
74529;BME280;63009;52.584;5.932;2023-06-14T10:01:58;101861.09;;;25.01;35.37
74529;BME280;63009;52.584;5.932;2023-06-14T10:04:25;101865.34;;;25.30;35.81
74529;BME280;63009;52.584;5.932;2023-06-14T10:06:50;101865.78;;;25.17;35.21
74529;BME280;63009;52.584;5.932;2023-06-14T10:09:17;101856.44;;;25.37;35.73
74529;BME280;63009;52.584;5.932;2023-06-14T10:11:43;101862.41;;;25.49;35.60
74529;BME280;63009;52.584;5.932;2023-06-14T10:14:12;101863.06;;;25.85;36.18
74529;BME280;63009;52.584;5.932;2023-06-14T10:16:49;101860.34;;;25.43;35.53
74529;BME280;63009;52.584;5.932;2023-06-14T10:19:25;101857.53;;;25.95;36.53
74529;BME280;63009;52.584;5.932;2023-06-14T10:22:02;101858.06;;;26.07;34.97
74529;BME280;63009;52.584;5.932;2023-06-14T10:24:33;101852.66;;;25.64;34.41
74529;BME280;63009;52.584;5.932;2023-06-14T10:26:59;101863.78;;;25.61;35.10
74529;BME280;63009;52.584;5.932;2023-06-14T10:29:28;101856.50;;;25.54;35.65
74529;BME280;63009;52.584;5.932;2023-06-14T10:31:58;101859.00;;;25.81;35.29
74529;BME280;63009;52.584;5.932;2023-06-14T10:34:31;101845.97;;;25.77;34.73
74529;BME280;63009;52.584;5.932;2023-06-14T10:37:04;101837.66;;;25.44;34.41
74529;BME280;63009;52.584;5.932;2023-06-14T10:39:31;101856.50;;;25.54;35.12
74529;BME280;63009;52.584;5.932;2023-06-14T10:41:57;101852.41;;;25.84;36.11
74529;BME280;63009;52.584;5.932;2023-06-14T10:46:49;101848.09;;;26.23;34.98
74529;BME280;63009;52.584;5.932;2023-06-14T10:49:36;101846.66;;;25.79;34.23
74529;BME280;63009;52.584;5.932;2023-06-14T10:52:08;101844.44;;;25.82;34.16
74529;BME280;63009;52.584;5.932;2023-06-14T10:54:36;101846.41;;;25.64;35.69
74529;BME280;63009;52.584;5.932;2023-06-14T10:57:06;101857.63;;;25.43;34.23
74529;BME280;63009;52.584;5.932;2023-06-14T10:59:32;101850.16;;;25.37;34.74
74529;BME280;63009;52.584;5.932;2023-06-14T11:02:27;101841.44;;;25.51;35.96
74529;BME280;63009;52.584;5.932;2023-06-14T11:05:08;101852.44;;;25.50;34.84
74529;BME280;63009;52.584;5.932;2023-06-14T11:08:09;101841.31;;;25.27;33.13
74529;BME280;63009;52.584;5.932;2023-06-14T11:10:42;101839.13;;;25.30;33.91
74529;BME280;63009;52.584;5.932;2023-06-14T11:13:08;101836.97;;;25.42;34.08
74529;BME280;63009;52.584;5.932;2023-06-14T11:15:37;101845.16;;;25.58;32.82
74529;BME280;63009;52.584;5.932;2023-06-14T11:18:05;101846.81;;;25.85;35.34
74529;BME280;63009;52.584;5.932;2023-06-14T11:20:33;101832.22;;;25.36;33.02
74529;BME280;63009;52.584;5.932;2023-06-14T11:22:59;101840.28;;;25.28;34.58
74529;BME280;63009;52.584;5.932;2023-06-14T11:25:26;101837.72;;;25.60;32.88
74529;BME280;63009;52.584;5.932;2023-06-14T11:27:54;101828.41;;;25.55;32.15
74529;BME280;63009;52.584;5.932;2023-06-14T11:30:20;101831.56;;;25.34;32.94
74529;BME280;63009;52.584;5.932;2023-06-14T11:32:47;101829.53;;;25.36;32.51
74529;BME280;63009;52.584;5.932;2023-06-14T11:35:12;101835.09;;;25.34;33.47
74529;BME280;63009;52.584;5.932;2023-06-14T11:37:39;101835.94;;;25.35;33.69
74529;BME280;63009;52.584;5.932;2023-06-14T11:40:07;101846.56;;;25.02;33.45
74529;BME280;63009;52.584;5.932;2023-06-14T11:42:35;101829.13;;;25.31;35.06
74529;BME280;63009;52.584;5.932;2023-06-14T12:12:00;101824.81;;;25.46;32.45
74529;BME280;63009;52.584;5.932;2023-06-14T12:14:30;101813.31;;;25.44;30.73
74529;BME280;63009;52.584;5.932;2023-06-14T12:17:04;101821.78;;;25.99;33.71
74529;BME280;63009;52.584;5.932;2023-06-14T12:19:31;101827.41;;;25.56;31.44
74529;BME280;63009;52.584;5.932;2023-06-14T12:21:59;101821.88;;;25.31;32.56
74529;BME280;63009;52.584;5.932;2023-06-14T12:24:28;101822.25;;;25.36;32.58
74529;BME280;63009;52.584;5.932;2023-06-14T12:26:54;101830.84;;;25.32;32.95
74529;BME280;63009;52.584;5.932;2023-06-14T12:29:19;101833.75;;;25.72;32.82
74529;BME280;63009;52.584;5.932;2023-06-14T12:31:45;101835.34;;;25.57;32.28
74529;BME280;63009;52.584;5.932;2023-06-14T12:34:10;101825.97;;;25.69;33.31
74529;BME280;63009;52.584;5.932;2023-06-14T12:36:35;101807.00;;;25.69;32.85
74529;BME280;63009;52.584;5.932;2023-06-14T12:39:06;101827.66;;;25.70;34.07
74529;BME280;63009;52.584;5.932;2023-06-14T12:41:38;101831.44;;;25.52;32.71
74529;BME280;63009;52.584;5.932;2023-06-14T12:44:03;101829.31;;;25.29;32.72
74529;BME280;63009;52.584;5.932;2023-06-14T12:46:31;101820.16;;;25.22;32.81
74529;BME280;63009;52.584;5.932;2023-06-14T12:48:57;101823.47;;;25.08;32.34
74529;BME280;63009;52.584;5.932;2023-06-14T12:51:22;101819.34;;;25.04;33.15
74529;BME280;63009;52.584;5.932;2023-06-14T12:53:48;101818.63;;;25.20;33.76
74529;BME280;63009;52.584;5.932;2023-06-14T12:56:14;101817.44;;;25.22;32.82
74529;BME280;63009;52.584;5.932;2023-06-14T12:58:41;101826.66;;;25.45;32.71
74529;BME280;63009;52.584;5.932;2023-06-14T13:01:06;101829.22;;;25.47;33.33
74529;BME280;63009;52.584;5.932;2023-06-14T13:03:31;101828.28;;;25.64;33.83
74529;BME280;63009;52.584;5.932;2023-06-14T13:05:58;101821.94;;;25.90;33.44
74529;BME280;63009;52.584;5.932;2023-06-14T13:08:24;101836.56;;;26.13;33.46
74529;BME280;63009;52.584;5.932;2023-06-14T13:10:49;101828.53;;;25.79;29.87
74529;BME280;63009;52.584;5.932;2023-06-14T13:13:14;101832.25;;;25.86;30.33
74529;BME280;63009;52.584;5.932;2023-06-14T13:15:40;101831.78;;;25.99;32.78
74529;BME280;63009;52.584;5.932;2023-06-14T13:18:05;101843.94;;;25.87;32.01
74529;BME280;63009;52.584;5.932;2023-06-14T13:20:31;101838.44;;;25.62;32.33